Time;durP1;ratioP1;P1;durP2;ratioP2;P2;SDS_P1;SDS_P2;PMS_P1;PMS_P2;Temp;Humidity;BMP_temperature;BMP_pressure;BME280_temperature;BME280_humidity;BME280_pressure;Samples;Min_cycle;Max_cycle;Signal;HPM_P1;HPM_P2
2022/11/27 00:00:56;;;;;;;6.93;5.20;;;17.00;66.20;17.90;101834.00;;;;5071115;28;20177;-45
2022/11/27 00:03:22;;;;;;;7.73;5.20;;;17.00;66.20;17.90;101829.00;;;;5070698;28;20195;-45
2022/11/27 00:05:55;;;;;;;7.70;5.17;;;16.90;66.10;17.90;101830.00;;;;5071010;28;20205;-45
2022/11/27 00:08:22;;;;;;;7.57;5.47;;;17.00;66.20;17.90;101828.00;;;;5053241;28;20666;-46
2022/11/27 00:10:47;;;;;;;7.17;4.90;;;17.00;66.20;17.80;101829.00;;;;5053000;28;20550;-46
2022/11/27 00:13:13;;;;;;;8.43;4.80;;;16.90;66.90;17.80;101825.00;;;;5070485;28;20166;-46
2022/11/27 00:15:39;;;;;;;6.10;4.97;;;16.90;66.10;17.80;101823.00;;;;5070281;28;20190;-44
2022/11/27 00:18:05;;;;;;;6.20;4.80;;;16.80;66.00;17.80;101820.00;;;;5070316;28;20187;-46
2022/11/27 00:20:31;;;;;;;5.90;4.50;;;16.80;66.80;17.80;101819.00;;;;5070861;28;20284;-46
2022/11/27 00:22:57;;;;;;;6.27;4.77;;;16.80;66.00;17.80;101815.00;;;;5070541;28;20254;-46
2022/11/27 00:25:23;;;;;;;6.20;4.97;;;16.80;66.00;17.70;101806.00;;;;5074461;28;20194;-46
2022/11/27 00:27:49;;;;;;;5.23;4.20;;;16.80;66.00;17.70;101804.00;;;;5076621;28;20689;-44
2022/11/27 00:30:14;;;;;;;6.23;4.40;;;16.70;66.00;17.70;101816.00;;;;5074648;28;20657;-45
2022/11/27 00:32:40;;;;;;;5.87;4.60;;;16.70;65.90;17.70;101814.00;;;;5070456;28;20177;-45
2022/11/27 00:35:06;;;;;;;5.57;4.30;;;16.70;66.00;17.70;101806.00;;;;5070381;28;20177;-46
2022/11/27 00:37:32;;;;;;;5.40;4.13;;;16.70;66.00;17.60;101797.00;;;;5069945;28;20178;-45
2022/11/27 00:39:58;;;;;;;6.03;4.50;;;16.60;65.90;17.60;101801.00;;;;5069328;28;20202;-46
2022/11/27 00:42:24;;;;;;;5.63;4.30;;;16.60;65.90;17.60;101805.00;;;;5069547;28;20197;-46
2022/11/27 00:44:49;;;;;;;5.20;4.40;;;16.60;65.90;17.60;101802.00;;;;5069454;28;20701;-45
2022/11/27 00:47:15;;;;;;;6.57;4.20;;;16.60;65.90;17.60;101804.00;;;;5069309;28;20193;-46
2022/11/27 00:49:41;;;;;;;6.20;4.30;;;16.60;66.00;17.60;101795.00;;;;5069209;28;20168;-46
2022/11/27 00:52:06;;;;;;;4.87;4.00;;;16.50;66.10;17.50;101806.00;;;;5068955;28;20170;-45
2022/11/27 00:54:32;;;;;;;4.57;3.90;;;16.60;66.20;17.50;101786.00;;;;5066854;28;20169;-47
2022/11/27 00:56:58;;;;;;;5.07;3.80;;;16.50;66.00;17.50;101795.00;;;;5048785;28;20190;-45
2022/11/27 00:59:24;;;;;;;5.47;4.20;;;16.50;66.10;17.50;101793.00;;;;5048848;28;20174;-46
2022/11/27 01:01:50;;;;;;;5.83;4.30;;;16.50;66.00;17.50;101783.00;;;;5031436;28;20181;-46
2022/11/27 01:04:16;;;;;;;4.13;3.73;;;16.50;66.10;17.40;101786.00;;;;5049211;28;20623;-45
2022/11/27 01:06:43;;;;;;;4.77;3.60;;;16.50;66.20;17.40;101775.00;;;;5049148;28;20754;-45
2022/11/27 01:09:13;;;;;;;4.73;3.67;;;16.40;66.20;17.10;101793.00;;;;5068438;28;20360;-45
2022/11/27 01:11:39;;;;;;;4.13;3.50;;;16.40;66.10;17.40;101792.00;;;;5068544;28;20600;-46
2022/11/27 01:14:11;;;;;;;5.27;4.27;;;16.40;66.10;17.30;101794.00;;;;5068711;28;20183;-46
2022/11/27 01:16:37;;;;;;;5.33;3.80;;;16.40;66.00;17.30;101794.00;;;;5068527;28;20216;-46
2022/11/27 01:19:03;;;;;;;4.80;3.90;;;16.30;66.00;17.30;101800.00;;;;5068635;28;20178;-46
2022/11/27 01:21:32;;;;;;;5.57;3.83;;;16.30;66.00;17.30;101808.00;;;;5068593;28;20178;-46
2022/11/27 01:23:58;;;;;;;4.57;3.80;;;16.30;66.10;17.30;101799.00;;;;5068757;28;20185;-46
2022/11/27 01:26:24;;;;;;;4.03;3.53;;;16.30;66.20;17.30;101796.00;;;;5068593;28;20693;-46
2022/11/27 01:28:53;;;;;;;5.23;4.00;;;16.30;66.20;17.20;101787.00;;;;5068413;28;20208;-46
2022/11/27 01:31:25;;;;;;;4.37;3.50;;;16.30;66.10;17.30;101802.00;;;;5068416;28;20574;-46
2022/11/27 01:33:56;;;;;;;3.90;3.50;;;16.30;66.20;17.20;101796.00;;;;5068383;28;20173;-45
2022/11/27 01:36:22;;;;;;;4.20;3.40;;;16.30;66.20;17.20;101795.00;;;;5068800;28;20196;-45
2022/11/27 01:38:48;;;;;;;4.13;3.63;;;16.20;66.20;17.20;101791.00;;;;5051422;28;20184;-45
2022/11/27 01:41:22;;;;;;;4.10;3.70;;;16.20;66.20;17.20;101784.00;;;;5068984;28;20564;-46
2022/11/27 01:43:57;;;;;;;5.03;3.60;;;16.20;66.10;17.20;101785.00;;;;5051756;28;20180;-46
2022/11/27 01:46:41;;;;;;;4.27;3.60;;;16.20;66.20;17.10;101791.00;;;;5068716;28;20201;-46
2022/11/27 01:49:09;;;;;;;4.00;3.57;;;16.20;66.20;17.10;101806.00;;;;5049786;28;20447;-44
2022/11/27 01:52:13;;;;;;;4.40;3.47;;;16.10;66.20;17.10;101794.00;;;;5068152;28;20174;-45
2022/11/27 01:54:47;;;;;;;4.07;3.30;;;16.10;66.20;17.00;101778.00;;;;5040888;28;20238;-45
2022/11/27 01:57:22;;;;;;;4.00;3.40;;;16.10;66.20;17.00;101772.00;;;;5050470;28;20215;-45
2022/11/27 01:59:48;;;;;;;4.63;3.40;;;16.10;66.20;17.00;101766.00;;;;5034858;28;20200;-46
2022/11/27 02:02:14;;;;;;;3.73;3.33;;;16.00;66.10;17.00;101769.00;;;;5049823;28;20173;-45
2022/11/27 02:04:39;;;;;;;5.10;3.47;;;16.00;66.10;17.00;101763.00;;;;5049838;28;20235;-46
2022/11/27 02:07:05;;;;;;;3.93;3.30;;;16.00;66.20;17.00;101754.00;;;;5068143;28;20235;-45
2022/11/27 02:09:31;;;;;;;3.73;3.20;;;16.00;66.20;17.00;101763.00;;;;5049915;28;20243;-46
2022/11/27 02:12:24;;;;;;;3.70;3.23;;;16.00;66.20;17.00;101759.00;;;;5033357;28;20173;-46
2022/11/27 02:15:03;;;;;;;3.87;3.30;;;15.90;66.20;16.90;101760.00;;;;5050280;28;20173;-45
2022/11/27 02:17:28;;;;;;;3.60;3.10;;;15.90;66.10;16.90;101741.00;;;;5050377;28;20251;-46
2022/11/27 02:20:53;;;;;;;3.30;3.00;;;15.90;66.10;16.90;101749.00;;;;5067649;28;20174;-44
2022/11/27 02:24:06;;;;;;;5.33;3.50;;;15.90;66.20;16.90;101740.00;;;;5049799;28;20158;-46
2022/11/27 02:26:59;;;;;;;3.60;3.30;;;15.90;66.20;16.80;101722.00;;;;5067353;28;20193;-46
2022/11/27 02:29:27;;;;;;;4.23;3.33;;;15.90;66.30;16.80;101721.00;;;;5052459;28;20301;-46
2022/11/27 02:31:58;;;;;;;3.93;3.27;;;15.90;66.30;16.80;101728.00;;;;5049888;28;20311;-46
2022/11/27 02:34:42;;;;;;;3.93;3.37;;;15.90;66.40;16.80;101725.00;;;;5049612;28;20253;-46
2022/11/27 02:37:31;;;;;;;4.10;3.17;;;15.80;66.20;16.80;101718.00;;;;5050686;28;20284;-46
2022/11/27 02:40:29;;;;;;;3.57;3.13;;;15.80;66.30;16.70;101735.00;;;;5049899;28;20162;-46
2022/11/27 02:43:18;;;;;;;3.70;3.13;;;15.80;66.30;16.70;101743.00;;;;5052413;28;20269;-46
2022/11/27 02:45:46;;;;;;;4.10;3.30;;;15.80;66.40;16.70;101739.00;;;;5035802;28;20213;-46
2022/11/27 02:48:13;;;;;;;3.83;3.10;;;15.80;66.30;16.70;101732.00;;;;5049482;28;20197;-45
2022/11/27 02:50:39;;;;;;;3.60;3.03;;;15.80;66.30;16.70;101728.00;;;;5032839;28;20170;-45
2022/11/27 02:53:16;;;;;;;3.10;2.80;;;15.70;66.20;16.70;101702.00;;;;5049539;28;20284;-45
2022/11/27 02:55:41;;;;;;;3.37;3.07;;;15.70;66.20;16.60;101700.00;;;;5049371;28;20189;-46
2022/11/27 02:58:11;;;;;;;4.00;3.07;;;15.70;66.20;16.60;101683.00;;;;5049805;28;20770;-46
2022/11/27 03:00:37;;;;;;;3.90;3.17;;;15.70;66.30;16.60;101675.00;;;;5050385;28;20170;-44
2022/11/27 03:03:04;;;;;;;3.07;2.77;;;15.70;66.30;16.60;101694.00;;;;5052206;28;20629;-45
2022/11/27 03:05:33;;;;;;;4.30;3.10;;;15.60;66.20;16.60;101697.00;;;;5053215;28;20190;-45
2022/11/27 03:08:06;;;;;;;6.70;3.40;;;15.70;66.40;16.60;101692.00;;;;5053628;28;20201;-45
2022/11/27 03:10:45;;;;;;;3.70;3.20;;;15.60;66.40;16.60;101696.00;;;;5053635;28;20528;-44
2022/11/27 03:13:10;;;;;;;3.67;3.00;;;15.60;66.40;16.60;101692.00;;;;5053528;28;20315;-45
2022/11/27 03:15:50;;;;;;;3.27;2.87;;;15.70;66.40;16.60;101688.00;;;;5070925;28;20653;-45
2022/11/27 03:18:38;;;;;;;3.50;3.00;;;15.60;66.30;16.60;101681.00;;;;5054186;28;20170;-45
2022/11/27 03:21:23;;;;;;;3.33;2.87;;;15.60;66.20;16.60;101681.00;;;;5071158;28;20173;-48
2022/11/27 03:23:48;;;;;;;3.77;2.87;;;15.60;66.10;16.60;101674.00;;;;5058563;28;20239;-45
2022/11/27 03:26:14;;;;;;;3.40;3.10;;;15.60;66.00;16.60;101664.00;;;;5071012;28;20229;-45
2022/11/27 03:28:41;;;;;;;3.57;3.10;;;15.60;66.00;16.60;101662.00;;;;5053214;28;20198;-46
2022/11/27 03:31:07;;;;;;;3.53;2.90;;;15.60;66.00;16.60;101663.00;;;;5036638;28;20170;-44
2022/11/27 03:33:33;;;;;;;3.30;3.00;;;15.60;65.90;16.60;101680.00;;;;5070780;28;20233;-46
2022/11/27 03:35:59;;;;;;;3.50;3.20;;;15.60;65.90;16.60;101677.00;;;;5052857;28;20189;-46
2022/11/27 03:38:24;;;;;;;3.40;3.10;;;15.60;65.90;16.60;101669.00;;;;5071286;28;20174;-46
2022/11/27 03:41:05;;;;;;;4.17;3.17;;;15.60;65.90;16.60;101671.00;;;;5054322;28;20174;-47
2022/11/27 03:43:34;;;;;;;3.10;2.80;;;15.60;65.90;16.60;101660.00;;;;5055271;28;20253;-45
2022/11/27 03:46:07;;;;;;;3.30;3.00;;;15.50;65.70;16.60;101678.00;;;;5036586;28;20265;-45
2022/11/27 03:48:40;;;;;;;3.20;2.90;;;15.50;65.80;16.60;101671.00;;;;5053498;28;20194;-46
2022/11/27 03:51:28;;;;;;;3.20;2.90;;;15.50;65.80;16.60;101681.00;;;;5036528;28;20162;-45
2022/11/27 03:54:15;;;;;;;3.37;3.07;;;15.50;65.80;16.60;101670.00;;;;5052444;28;20158;-46
2022/11/27 03:56:57;;;;;;;3.40;3.10;;;15.50;65.90;16.60;101669.00;;;;5052487;28;20189;-44
2022/11/27 03:59:26;;;;;;;3.53;3.23;;;15.40;66.60;16.60;101655.00;;;;5053829;28;20722;-45
2022/11/27 04:01:52;;;;;;;3.40;3.00;;;15.40;65.80;16.50;101665.00;;;;5052552;28;20162;-45
2022/11/27 04:04:18;;;;;;;3.30;3.00;;;15.40;65.70;16.50;101668.00;;;;5070516;28;20176;-44
2022/11/27 04:06:43;;;;;;;4.07;3.27;;;15.40;65.80;16.50;101662.00;;;;5070558;28;20610;-46
2022/11/27 04:09:09;;;;;;;3.27;2.90;;;15.40;65.80;16.50;101655.00;;;;5052398;28;20189;-45
2022/11/27 04:11:35;;;;;;;3.57;3.27;;;15.40;65.80;16.50;101637.00;;;;5069730;28;20169;-47
2022/11/27 04:14:01;;;;;;;3.30;3.00;;;15.40;65.80;16.50;101658.00;;;;5051974;28;20170;-47
2022/11/27 04:16:26;;;;;;;3.37;2.93;;;15.30;65.80;16.50;101653.00;;;;5069928;28;20284;-46
2022/11/27 04:18:52;;;;;;;3.23;2.90;;;15.30;65.80;16.50;101665.00;;;;5069914;28;20212;-46
2022/11/27 04:21:18;;;;;;;3.30;3.00;;;15.30;65.70;16.50;101655.00;;;;5069981;28;20185;-46
2022/11/27 04:23:44;;;;;;;3.40;3.10;;;15.40;65.80;16.50;101640.00;;;;5070098;28;20200;-45
2022/11/27 04:26:10;;;;;;;3.33;3.03;;;15.40;65.70;16.50;101640.00;;;;5069435;28;20197;-46
2022/11/27 04:28:35;;;;;;;3.70;3.27;;;15.40;65.80;16.50;101646.00;;;;5052056;28;20618;-46
2022/11/27 04:31:01;;;;;;;3.47;3.17;;;15.30;66.40;16.40;101641.00;;;;5066882;28;20189;-45
2022/11/27 04:33:27;;;;;;;3.87;3.37;;;15.30;66.30;16.40;101633.00;;;;5050078;28;20182;-44
2022/11/27 04:35:53;;;;;;;3.53;3.23;;;15.40;66.00;16.40;101630.00;;;;5031946;28;20627;-44
2022/11/27 04:38:19;;;;;;;3.40;3.10;;;15.30;66.00;16.40;101620.00;;;;5032266;28;20170;-45
2022/11/27 04:40:45;;;;;;;5.60;3.20;;;15.30;65.70;16.40;101606.00;;;;5049687;28;20265;-43
2022/11/27 04:43:11;;;;;;;4.50;3.57;;;15.30;65.70;16.40;101601.00;;;;5049698;28;20261;-44
2022/11/27 04:45:36;;;;;;;6.77;4.40;;;15.30;65.40;16.30;101589.00;;;;5049823;28;20197;-46
2022/11/27 04:48:03;;;;;;;6.23;4.67;;;15.20;64.30;16.30;101585.00;;;;5049431;28;20685;-45
2022/11/27 04:50:29;;;;;;;7.17;5.20;;;15.10;63.80;16.30;101583.00;;;;5050163;28;20175;-45
2022/11/27 04:52:54;;;;;;;6.33;4.90;;;15.00;63.20;16.20;101571.00;;;;5049427;28;20246;-45
2022/11/27 04:55:20;;;;;;;5.80;5.20;;;14.90;63.10;16.20;101567.00;;;;5049118;28;20698;-45
2022/11/27 04:57:46;;;;;;;7.30;5.63;;;14.80;62.30;16.10;101562.00;;;;5049504;28;20170;-45
2022/11/27 05:00:12;;;;;;;7.33;5.50;;;14.80;61.80;16.10;101563.00;;;;5049266;28;20682;-44
2022/11/27 05:02:38;;;;;;;6.97;6.10;;;14.70;61.60;16.10;101567.00;;;;5048840;28;20186;-46
2022/11/27 05:05:04;;;;;;;6.07;5.40;;;14.70;61.10;16.00;101568.00;;;;5049221;28;20174;-45
2022/11/27 05:07:30;;;;;;;7.90;5.60;;;14.60;60.40;16.00;101561.00;;;;5048969;28;20175;-44
2022/11/27 05:09:56;;;;;;;6.03;5.10;;;14.60;60.00;15.90;101569.00;;;;5049143;28;20174;-46
2022/11/27 05:12:22;;;;;;;6.20;5.57;;;14.60;60.30;15.90;101563.00;;;;5047336;28;20200;-45
2022/11/27 05:14:47;;;;;;;7.60;5.40;;;14.50;59.90;15.90;101561.00;;;;5068753;28;20404;-45
2022/11/27 05:17:13;;;;;;;6.87;5.23;;;14.50;59.80;15.80;101559.00;;;;5068265;28;20194;-46
2022/11/27 05:19:39;;;;;;;6.00;5.40;;;14.50;59.70;15.80;101565.00;;;;5068594;28;20178;-45
2022/11/27 05:22:04;;;;;;;6.20;5.60;;;14.50;59.70;15.80;101560.00;;;;5068725;28;20169;-47
2022/11/27 05:24:30;;;;;;;7.40;5.57;;;14.40;59.30;15.80;101561.00;;;;5067528;28;20638;-45
2022/11/27 05:26:56;;;;;;;7.60;5.90;;;14.40;59.30;15.70;101561.00;;;;5068369;28;20212;-47
2022/11/27 05:29:22;;;;;;;7.17;5.43;;;14.40;59.30;15.70;101536.00;;;;5068190;28;20323;-45
2022/11/27 05:31:48;;;;;;;6.77;5.27;;;14.40;59.00;15.70;101547.00;;;;5050173;28;20228;-45
2022/11/27 05:34:14;;;;;;;6.97;5.47;;;14.30;58.80;15.60;101541.00;;;;5068628;28;20711;-45
2022/11/27 05:36:40;;;;;;;5.57;5.03;;;14.30;58.70;15.60;101530.00;;;;5068855;28;20246;-46
2022/11/27 05:39:06;;;;;;;6.63;5.07;;;14.30;58.90;15.60;101549.00;;;;5068621;28;20208;-44
2022/11/27 05:41:33;;;;;;;5.83;4.80;;;14.40;59.30;15.70;101551.00;;;;5068356;28;20758;-46
2022/11/27 05:43:59;;;;;;;6.60;5.33;;;14.40;59.90;15.60;101544.00;;;;5068594;28;20600;-47
2022/11/27 05:46:24;;;;;;;6.23;5.37;;;14.30;58.50;15.60;101548.00;;;;5068468;28;20221;-45
2022/11/27 05:48:50;;;;;;;8.20;5.53;;;14.20;58.80;15.50;101544.00;;;;5068214;28;20216;-48
2022/11/27 05:51:16;;;;;;;7.23;5.07;;;14.20;58.50;15.50;101548.00;;;;5069076;28;20235;-47
2022/11/27 05:53:42;;;;;;;6.83;5.30;;;14.20;58.90;15.50;101536.00;;;;5069283;28;20519;-44
2022/11/27 05:56:16;;;;;;;5.97;5.03;;;14.20;58.80;15.50;101537.00;;;;5050691;28;20193;-47
2022/11/27 05:58:43;;;;;;;10.60;5.13;;;14.30;58.80;15.50;101544.00;;;;5068282;28;20184;-44
2022/11/27 06:01:10;;;;;;;7.93;4.90;;;14.40;58.80;15.50;101527.00;;;;5068290;28;20166;-46
2022/11/27 06:03:37;;;;;;;5.57;4.17;;;14.50;58.70;15.50;101525.00;;;;5068552;28;20265;-48
2022/11/27 06:06:08;;;;;;;6.50;4.03;;;14.60;58.60;15.60;101533.00;;;;5068460;28;20221;-45
2022/11/27 06:08:36;;;;;;;7.27;4.03;;;14.70;58.70;15.60;101527.00;;;;5049686;28;20209;-47
2022/11/27 06:11:09;;;;;;;9.17;4.10;;;14.70;58.70;15.60;101534.00;;;;5070238;28;20170;-46
2022/11/27 06:13:35;;;;;;;7.07;4.37;;;14.70;58.70;15.60;101529.00;;;;5072006;28;20154;-45
2022/11/27 06:16:14;;;;;;;7.00;4.20;;;14.80;58.90;15.70;101533.00;;;;5068475;28;20613;-44
2022/11/27 06:18:40;;;;;;;6.57;4.17;;;14.80;59.10;15.70;101531.00;;;;5050525;28;20168;-47
2022/11/27 06:21:12;;;;;;;10.40;4.60;;;14.80;59.30;15.70;101513.00;;;;5067787;28;20652;-46
2022/11/27 06:23:38;;;;;;;12.10;4.40;;;14.80;59.50;15.70;101530.00;;;;5068873;28;20166;-47
2022/11/27 06:26:15;;;;;;;16.83;5.13;;;14.80;59.70;15.70;101523.00;;;;5068430;28;20194;-45
2022/11/27 06:28:41;;;;;;;9.43;5.00;;;14.70;59.80;15.70;101523.00;;;;5068077;28;20193;-46
2022/11/27 06:31:09;;;;;;;8.73;4.43;;;14.70;59.80;15.70;101509.00;;;;5068511;28;20228;-46
2022/11/27 06:33:35;;;;;;;12.03;4.60;;;14.70;59.80;15.70;101505.00;;;;5068132;28;20231;-44
2022/11/27 06:36:02;;;;;;;11.80;4.47;;;14.70;59.90;15.70;101514.00;;;;5069726;28;20574;-45
2022/11/27 06:38:29;;;;;;;12.97;4.60;;;14.70;59.90;15.60;101505.00;;;;5071917;28;20181;-44
2022/11/27 06:41:01;;;;;;;9.07;4.33;;;14.70;59.90;15.70;101514.00;;;;5072327;28;20662;-45
2022/11/27 06:43:27;;;;;;;8.73;4.37;;;14.70;60.10;15.70;101501.00;;;;5055343;28;20162;-45
2022/11/27 06:45:57;;;;;;;8.07;4.63;;;14.70;60.40;15.70;101508.00;;;;5072145;28;20197;-46
2022/11/27 06:48:22;;;;;;;9.90;3.97;;;14.70;60.40;15.70;101497.00;;;;5071551;28;20220;-44
2022/11/27 06:50:48;;;;;;;9.10;4.50;;;14.70;60.40;15.70;101476.00;;;;5072207;28;20862;-46
2022/11/27 06:53:14;;;;;;;7.90;3.90;;;14.70;60.50;15.70;101477.00;;;;5071792;28;20689;-45
2022/11/27 06:55:39;;;;;;;9.17;4.00;;;14.70;60.60;15.70;101483.00;;;;5072377;28;20190;-45
2022/11/27 06:58:05;;;;;;;6.53;3.87;;;14.70;60.70;15.70;101478.00;;;;5072708;28;20161;-45
2022/11/27 07:00:31;;;;;;;8.63;4.13;;;14.70;60.80;15.70;101473.00;;;;5072796;28;20169;-46
2022/11/27 07:02:57;;;;;;;7.60;4.03;;;14.70;60.80;15.70;101487.00;;;;5071951;28;20612;-46
2022/11/27 07:05:23;;;;;;;7.73;3.80;;;14.70;60.80;15.70;101481.00;;;;5072217;28;20166;-45
2022/11/27 07:07:48;;;;;;;6.87;3.87;;;14.70;60.80;15.70;101399.00;;;;5053487;28;20201;-46
2022/11/27 07:10:14;;;;;;;6.93;4.03;;;14.70;60.90;15.70;101466.00;;;;5071642;28;20165;-45
2022/11/27 07:12:40;;;;;;;5.40;3.33;;;14.70;61.10;15.70;101461.00;;;;5071532;28;20158;-46
2022/11/27 07:15:06;;;;;;;6.23;3.77;;;14.70;61.10;15.70;101472.00;;;;5071647;28;20274;-47
2022/11/27 07:17:32;;;;;;;6.53;3.60;;;14.70;61.10;15.70;101469.00;;;;5071406;28;20182;-45
2022/11/27 07:19:58;;;;;;;7.80;3.57;;;14.60;60.90;15.70;101462.00;;;;5071520;28;20661;-46
2022/11/27 07:22:23;;;;;;;6.67;3.83;;;14.70;61.20;15.60;101453.00;;;;5071180;28;20161;-46
2022/11/27 07:24:49;;;;;;;4.53;3.50;;;14.60;61.10;15.60;101452.00;;;;5071663;28;20169;-45
2022/11/27 07:27:15;;;;;;;4.57;3.47;;;14.60;61.20;15.60;101451.00;;;;5071072;28;20186;-45
2022/11/27 07:29:41;;;;;;;5.67;4.00;;;14.60;61.30;15.60;101446.00;;;;5071064;28;20197;-45
2022/11/27 07:32:06;;;;;;;5.90;3.90;;;14.60;61.30;15.60;101447.00;;;;5070804;28;20223;-47
2022/11/27 07:34:32;;;;;;;5.80;3.60;;;14.60;61.40;15.60;101443.00;;;;5071255;28;20625;-46
2022/11/27 07:36:58;;;;;;;6.27;3.80;;;14.60;61.50;15.60;101439.00;;;;5071070;28;20194;-45
2022/11/27 07:39:23;;;;;;;3.90;3.40;;;14.60;61.50;15.60;101439.00;;;;5069631;28;20193;-45
2022/11/27 07:41:49;;;;;;;3.80;3.33;;;14.60;61.50;15.60;101420.00;;;;5071172;28;20169;-44
2022/11/27 07:44:15;;;;;;;5.60;3.70;;;14.60;61.50;15.60;101429.00;;;;5071145;28;20245;-46
2022/11/27 07:46:41;;;;;;;3.50;3.20;;;14.60;61.60;15.60;101425.00;;;;5070891;28;20319;-47
2022/11/27 07:49:07;;;;;;;4.43;3.37;;;14.50;61.50;15.60;101419.00;;;;5069933;28;20213;-45
2022/11/27 07:51:32;;;;;;;4.50;3.50;;;14.50;61.60;15.50;101418.00;;;;5070858;28;20166;-46
2022/11/27 07:53:58;;;;;;;4.00;3.30;;;14.50;61.70;15.50;101423.00;;;;5071109;28;20177;-46
2022/11/27 07:56:24;;;;;;;6.63;3.70;;;14.50;61.70;15.50;101421.00;;;;5071012;28;20205;-46
2022/11/27 07:58:50;;;;;;;4.47;3.37;;;14.50;61.80;15.50;101412.00;;;;5070750;28;20201;-45
2022/11/27 08:01:17;;;;;;;3.50;3.07;;;14.50;61.70;15.50;101419.00;;;;5070239;28;20166;-45
2022/11/27 08:03:43;;;;;;;5.70;3.33;;;14.50;61.90;15.50;101406.00;;;;5070794;28;20165;-46
2022/11/27 08:06:17;;;;;;;3.83;3.33;;;14.50;61.90;15.50;101397.00;;;;5070501;28;20202;-45
2022/11/27 08:08:43;;;;;;;4.00;3.20;;;14.50;61.90;15.50;101403.00;;;;5069330;28;20185;-45
2022/11/27 08:11:31;;;;;;;5.17;3.37;;;14.50;62.70;15.50;101400.00;;;;5068614;28;20178;-45
2022/11/27 08:14:03;;;;;;;3.70;3.30;;;14.50;62.00;15.40;101402.00;;;;5071178;28;20158;-47
2022/11/27 08:16:30;;;;;;;4.17;3.60;;;14.50;62.70;15.50;101406.00;;;;5052432;28;20588;-46
2022/11/27 08:18:56;;;;;;;4.07;3.60;;;14.50;62.00;15.40;101396.00;;;;5069877;28;20169;-46
2022/11/27 08:21:22;;;;;;;6.97;3.60;;;14.50;61.90;15.40;101399.00;;;;5051150;28;20166;-46
2022/11/27 08:23:47;;;;;;;3.80;3.37;;;14.50;62.00;15.40;101389.00;;;;5069390;28;20197;-45
2022/11/27 08:26:13;;;;;;;4.37;3.50;;;14.40;62.00;15.40;101399.00;;;;5069845;28;20200;-46
2022/11/27 08:28:39;;;;;;;3.30;3.00;;;14.50;62.20;15.40;101382.00;;;;5069782;28;20280;-46
2022/11/27 08:31:06;;;;;;;3.40;3.10;;;14.40;62.30;15.50;101386.00;;;;5070709;28;20276;-46
2022/11/27 08:33:32;;;;;;;3.30;3.00;;;14.50;62.50;15.50;101381.00;;;;5070513;28;20634;-45
2022/11/27 08:35:57;;;;;;;3.90;3.10;;;14.40;62.50;15.50;101393.00;;;;5070847;28;20192;-45
2022/11/27 08:38:23;;;;;;;3.43;2.80;;;14.40;62.60;15.50;101409.00;;;;5070387;28;20252;-44
2022/11/27 08:41:00;;;;;;;4.63;3.60;;;14.40;62.90;15.50;101422.00;;;;5070530;28;20185;-46
2022/11/27 08:43:26;;;;;;;4.57;3.30;;;14.50;63.10;15.50;101425.00;;;;4991506;28;20181;-47
2022/11/27 08:45:53;;;;;;;8.60;3.10;;;14.50;62.90;15.50;101403.00;;;;5068463;28;20292;-45
2022/11/27 08:48:19;;;;;;;3.67;3.13;;;14.50;63.60;15.50;101415.00;;;;5070474;28;20193;-45
2022/11/27 08:50:45;;;;;;;3.80;3.07;;;14.60;63.30;15.50;101403.00;;;;5070385;28;20174;-45
2022/11/27 08:53:11;;;;;;;3.10;2.80;;;14.70;62.30;15.60;101418.00;;;;5069485;28;20585;-47
2022/11/27 08:55:36;;;;;;;3.73;2.97;;;14.90;62.20;15.60;101411.00;;;;5070498;28;20262;-47
2022/11/27 08:58:02;;;;;;;3.03;2.73;;;15.00;61.90;15.70;101403.00;;;;5071857;28;20188;-45
2022/11/27 09:00:29;;;;;;;5.73;3.10;;;15.20;61.60;15.80;101399.00;;;;5070336;28;20260;-45
2022/11/27 09:02:55;;;;;;;4.87;3.03;;;15.30;61.50;15.90;101391.00;;;;5050475;28;20167;-45
2022/11/27 09:05:21;;;;;;;3.10;2.80;;;15.50;61.30;16.00;101407.00;;;;5049775;28;20166;-45
2022/11/27 09:07:46;;;;;;;4.30;2.80;;;15.60;61.00;16.10;101402.00;;;;5049415;28;20178;-46
2022/11/27 09:10:12;;;;;;;4.70;2.73;;;15.80;60.90;16.20;101403.00;;;;5031876;28;20691;-48
2022/11/27 09:12:38;;;;;;;3.40;2.77;;;15.90;60.70;16.30;101401.00;;;;5049552;28;20206;-45
2022/11/27 09:15:05;;;;;;;3.73;2.50;;;16.10;60.70;16.40;101404.00;;;;5049990;28;20524;-46
2022/11/27 09:17:30;;;;;;;4.97;2.90;;;16.30;60.60;16.60;101381.00;;;;5049763;28;20179;-47
2022/11/27 09:19:56;;;;;;;3.10;2.70;;;16.40;60.60;16.70;101386.00;;;;5049706;28;20185;-47
2022/11/27 09:22:22;;;;;;;3.13;2.80;;;16.50;60.40;16.80;101374.00;;;;5048939;28;20167;-46
2022/11/27 09:24:48;;;;;;;4.03;2.63;;;16.70;60.40;16.90;101370.00;;;;5049502;28;20643;-45
2022/11/27 09:27:13;;;;;;;5.93;2.73;;;16.80;60.20;17.00;101362.00;;;;5049131;28;20278;-46
2022/11/27 09:29:39;;;;;;;3.50;2.80;;;16.90;60.20;17.10;101365.00;;;;5049017;28;20195;-45
2022/11/27 09:32:05;;;;;;;4.23;2.80;;;16.90;60.10;17.20;101365.00;;;;5061460;28;20650;-45
2022/11/27 09:34:30;;;;;;;4.80;2.77;;;17.00;60.30;17.20;101357.00;;;;5068095;28;20177;-47
2022/11/27 09:36:56;;;;;;;2.63;2.03;;;17.00;60.30;17.30;101368.00;;;;5066193;28;20216;-46
2022/11/27 09:39:22;;;;;;;3.83;2.50;;;17.00;60.50;17.30;101355.00;;;;5049177;28;20660;-47
2022/11/27 09:41:53;;;;;;;5.83;2.73;;;16.90;60.40;17.40;101347.00;;;;4994866;28;22225;-44
2022/11/27 09:44:50;;;;;;;4.03;2.80;;;16.90;60.70;17.40;101342.00;;;;5031282;28;20503;-46
2022/11/27 09:47:42;;;;;;;6.73;2.40;;;16.80;61.00;17.40;101348.00;;;;5026717;28;20542;-46
2022/11/27 09:50:29;;;;;;;3.60;2.50;;;16.90;61.70;17.40;101335.00;;;;5026848;28;20171;-45
2022/11/27 09:53:31;;;;;;;2.60;2.40;;;16.90;61.80;17.40;101329.00;;;;5039225;28;20174;-46
2022/11/27 09:55:58;;;;;;;2.73;2.47;;;17.00;61.90;17.50;101320.00;;;;5040417;28;20280;-51
2022/11/27 09:58:35;;;;;;;7.23;2.90;;;17.00;61.80;17.50;101325.00;;;;5023940;28;20170;-47
2022/11/27 10:01:10;;;;;;;5.60;2.70;;;17.00;61.50;17.50;101326.00;;;;5050409;28;20170;-47
2022/11/27 10:03:36;;;;;;;5.87;2.47;;;17.00;61.60;17.50;101331.00;;;;5034232;28;20157;-47
2022/11/27 10:06:26;;;;;;;6.07;2.90;;;16.90;62.00;17.50;101337.00;;;;5034215;28;20685;-47
2022/11/27 10:09:05;;;;;;;4.87;2.63;;;17.00;61.90;17.50;101325.00;;;;5053920;28;20194;-54
2022/11/27 10:11:40;;;;;;;4.63;2.60;;;17.10;61.90;17.60;101343.00;;;;5050240;28;20173;-48
2022/11/27 10:14:29;;;;;;;5.20;2.50;;;17.10;61.90;17.60;101329.00;;;;5066772;28;20188;-49
2022/11/27 10:17:16;;;;;;;7.87;2.40;;;17.10;61.60;17.70;101304.00;;;;5049054;28;20221;-47
2022/11/27 10:19:50;;;;;;;8.10;2.50;;;17.10;61.80;17.70;101322.00;;;;5052145;28;20178;-47
2022/11/27 10:22:40;;;;;;;4.97;2.50;;;17.10;62.00;17.70;101323.00;;;;5050457;28;20165;-47
2022/11/27 10:25:24;;;;;;;5.83;2.40;;;17.10;62.00;17.70;101319.00;;;;5068138;28;20162;-48
2022/11/27 10:28:10;;;;;;;8.23;2.40;;;17.20;62.50;17.80;101318.00;;;;5051276;28;20158;-48
2022/11/27 10:31:15;;;;;;;7.57;2.33;;;17.30;62.20;17.80;101320.00;;;;5051497;28;20166;-47
2022/11/27 10:33:56;;;;;;;5.50;2.50;;;17.30;62.70;17.80;101331.00;;;;5039750;28;20189;-46
2022/11/27 10:36:35;;;;;;;4.77;2.40;;;17.30;62.80;17.80;101319.00;;;;5051907;28;20181;-46
2022/11/27 10:39:02;;;;;;;10.70;2.67;;;17.20;62.60;17.80;101313.00;;;;5048637;28;20181;-47
2022/11/27 10:41:33;;;;;;;4.53;2.60;;;17.20;62.60;17.90;101306.00;;;;5008189;28;20164;-49
2022/11/27 10:44:08;;;;;;;6.90;2.57;;;17.20;62.40;17.90;101292.00;;;;5017859;28;20599;-49
2022/11/27 10:46:35;;;;;;;5.70;2.70;;;17.30;63.30;17.90;101286.00;;;;5030069;28;20701;-48
2022/11/27 10:49:00;;;;;;;5.50;2.63;;;17.30;63.50;17.90;101284.00;;;;5031865;28;20220;-48
2022/11/27 10:51:32;;;;;;;8.07;2.83;;;17.30;63.30;17.90;101277.00;;;;5050245;28;20167;-47
2022/11/27 10:53:59;;;;;;;4.70;2.53;;;17.30;63.10;17.90;101298.00;;;;5032958;28;20636;-46
2022/11/27 10:56:49;;;;;;;4.03;2.70;;;17.30;63.00;18.00;101287.00;;;;5030299;28;20183;-48
2022/11/27 10:59:21;;;;;;;3.73;2.60;;;17.20;62.90;17.90;101266.00;;;;5030368;28;20192;-48